.
WxDataArchive / Data Records for 2013-12-03
2013-12-02 December 2013 2013-12-04

Data Records for Tuesday, 03 December 2013

Time	Temp	Chill	HIndex	Humid	Dewpt	 Wind 	HiWind	WindDir	Rain 	Barom 
-----	----	-----	------	-----	-----	------	------	-------	-----	----- 
00:00	33.5	33.5	33.5	91	31.2	3	6	68	0.00	29.862 
00:05	33.5	33.5	33.5	91	31.2	3	7	90	0.00	29.862 
00:10	33.5	33.5	33.5	91	31.2	3	9	90	0.00	29.862 
00:15	33.5	33.5	33.5	92	31.4	3	7	90	0.00	29.850 
00:20	33.5	33.5	33.5	92	31.4	2	5	90	0.00	29.850 
00:25	33.5	33.5	33.5	92	31.4	2	7	90	0.00	29.850 
00:30	33.5	33.5	33.5	92	31.4	2	6	112	0.00	29.853 
00:35	33.5	33.5	33.5	92	31.4	3	6	90	0.00	29.853 
00:40	33.5	33.5	33.5	92	31.4	3	9	90	0.00	29.853 
00:45	33.5	33.5	33.5	92	31.4	2	6	90	0.01	29.847 
00:50	33.5	33.5	33.5	92	31.4	2	6	90	0.00	29.847 
00:55	33.5	29.8	33.5	92	31.4	4	7	90	0.00	29.847 
01:00	33.5	33.5	33.5	92	31.4	3	6	90	0.00	29.843 
01:05	33.5	33.5	33.5	92	31.4	3	7	90	0.00	29.843 
01:10	33.5	33.5	33.5	92	31.4	3	8	90	0.00	29.843 
01:15	33.5	33.5	33.5	92	31.4	3	7	112	0.00	29.842 
01:20	33.5	33.5	33.5	92	31.4	3	7	112	0.00	29.842 
01:25	33.5	33.5	33.5	92	31.4	3	7	90	0.00	29.842 
01:30	33.7	33.7	33.7	92	31.6	3	6	90	0.00	29.842 
01:35	33.7	33.7	33.7	92	31.6	2	6	90	0.00	29.842 
01:40	33.7	33.7	33.7	92	31.6	2	6	90	0.00	29.842 
01:45	33.7	33.7	33.7	92	31.6	3	12	112	0.00	29.837 
01:50	33.7	33.7	33.7	92	31.6	3	6	90	0.00	29.837 
01:55	33.7	33.7	33.7	92	31.6	2	6	90	0.00	29.837 
02:00	33.7	33.7	33.7	92	31.6	3	6	90	0.00	29.840 
02:05	33.7	33.7	33.7	92	31.6	2	8	90	0.00	29.840 
02:10	33.7	33.7	33.7	92	31.6	2	6	90	0.00	29.840 
02:15	33.7	33.7	33.7	92	31.6	3	7	90	0.00	29.833 
02:20	33.7	33.7	33.7	92	31.6	3	7	90	0.00	29.833 
02:25	33.7	33.7	33.7	92	31.6	2	6	90	0.01	29.833 
02:30	33.7	33.7	33.7	92	31.6	3	7	90	0.00	29.827 
02:35	33.7	33.7	33.7	92	31.6	2	8	68	0.00	29.827 
02:40	33.7	33.7	33.7	92	31.6	2	5	90	0.00	29.827 
02:45	33.7	33.7	33.7	92	31.6	2	5	90	0.00	29.835 
02:50	33.7	33.7	33.7	92	31.6	2	9	90	0.01	29.835 
02:55	33.7	33.7	33.7	92	31.6	2	6	90	0.00	29.835 
03:00	33.7	33.7	33.7	92	31.6	2	5	90	0.00	29.837 
03:05	33.7	33.7	33.7	92	31.6	2	4	90	0.00	29.837 
03:10	33.7	33.7	33.7	92	31.6	2	9	90	0.01	29.837 
03:15	33.5	33.5	33.5	92	31.4	3	7	90	0.01	29.844 
03:20	33.5	33.5	33.5	93	31.7	2	5	90	0.00	29.844 
03:25	33.5	33.5	33.5	93	31.7	2	5	90	0.01	29.844 
03:30	33.7	33.7	33.7	93	31.9	2	5	112	0.00	29.840 
03:35	33.7	33.7	33.7	93	31.9	3	5	112	0.00	29.840 
03:40	33.7	33.7	33.7	93	31.9	3	5	90	0.00	29.840 
03:45	33.7	33.7	33.7	93	31.9	3	6	90	0.00	29.829 
03:50	33.7	33.7	33.7	93	31.9	3	10	90	0.00	29.829 
03:55	33.7	33.7	33.7	93	31.9	3	7	90	0.00	29.829 
04:00	33.7	30.0	33.7	93	31.9	4	10	90	0.00	29.825 
04:05	33.7	33.7	33.7	93	31.9	3	6	112	0.00	29.825 
04:10	33.8	33.8	33.8	93	32.0	1	5	112	0.00	29.825 
04:15	33.8	33.8	33.8	93	32.0	3	10	90	0.00	29.828 
04:20	33.8	33.8	33.8	94	32.3	3	7	90	0.00	29.828 
04:25	33.8	33.8	33.8	94	32.3	2	6	90	0.00	29.828 
04:30	33.8	33.8	33.8	94	32.3	2	5	90	0.00	29.829 
04:35	34.0	34.0	34.0	94	32.5	2	6	90	0.00	29.829 
04:40	34.0	34.0	34.0	94	32.5	2	5	90	0.00	29.829 
04:45	34.0	34.0	34.0	94	32.5	2	5	90	0.00	29.826 
04:50	34.0	34.0	34.0	94	32.5	3	5	90	0.00	29.826 
04:55	34.0	34.0	34.0	94	32.5	3	6	90	0.00	29.826 
05:00	34.0	34.0	34.0	94	32.5	2	5	90	0.00	29.826 
05:05	34.1	34.1	34.1	94	32.6	1	4	90	0.00	29.826 
05:10	34.1	34.1	34.1	94	32.6	2	5	90	0.00	29.826 
05:15	34.1	34.1	34.1	94	32.6	3	6	90	0.00	29.825 
05:20	34.1	34.1	34.1	94	32.6	2	6	90	0.00	29.825 
05:25	34.1	34.1	34.1	94	32.6	2	5	68	0.00	29.825 
05:30	34.1	34.1	34.1	94	32.6	2	5	90	0.00	29.813 
05:35	34.1	34.1	34.1	94	32.6	2	4	90	0.00	29.813 
05:40	34.1	34.1	34.1	94	32.6	2	4	90	0.00	29.813 
05:45	34.1	34.1	34.1	94	32.6	2	7	90	0.00	29.811 
05:50	34.1	34.1	34.1	94	32.6	3	7	112	0.00	29.811 
05:55	34.1	34.1	34.1	94	32.6	3	9	90	0.00	29.811 
06:00	34.1	34.1	34.1	94	32.6	3	7	90	0.00	29.800 
06:05	34.1	34.1	34.1	94	32.6	2	5	90	0.00	29.800 
06:10	34.1	34.1	34.1	94	32.6	3	7	90	0.00	29.800 
06:15	34.1	34.1	34.1	94	32.6	1	4	68	0.00	29.813 
06:20	34.1	34.1	34.1	94	32.6	2	5	112	0.00	29.813 
06:25	34.1	34.1	34.1	94	32.6	2	6	90	0.00	29.813 
06:30	34.1	34.1	34.1	94	32.6	1	4	90	0.00	29.813 
06:35	34.3	34.3	34.3	94	32.8	1	4	68	0.00	29.813 
06:40	34.3	34.3	34.3	94	32.8	1	3	68	0.00	29.813 
06:45	34.3	34.3	34.3	94	32.8	1	4	68	0.00	29.824 
06:50	34.3	34.3	34.3	94	32.8	2	4	90	0.00	29.824 
06:55	34.4	34.4	34.4	94	32.9	2	6	90	0.00	29.824 
07:00	34.4	34.4	34.4	94	32.9	2	5	90	0.00	29.829 
07:05	34.4	34.4	34.4	94	32.9	2	5	90	0.00	29.829 
07:10	34.4	34.4	34.4	94	32.9	2	4	90	0.00	29.829 
07:15	34.4	34.4	34.4	94	32.9	2	5	90	0.00	29.831 
07:20	34.6	34.6	34.6	94	33.1	1	4	90	0.00	29.831 
07:25	34.6	34.6	34.6	94	33.1	1	3	90	0.00	29.831 
07:30	34.6	34.6	34.6	94	33.1	2	5	90	0.00	29.837 
07:35	34.6	34.6	34.6	94	33.1	2	5	90	0.00	29.837 
07:40	34.6	34.6	34.6	94	33.1	1	3	90	0.00	29.837 
07:45	34.6	34.6	34.6	94	33.1	2	5	90	0.00	29.834 
07:50	34.6	34.6	34.6	94	33.1	3	6	90	0.00	29.834 
07:55	34.6	34.6	34.6	94	33.1	1	4	90	0.00	29.834 
08:00	34.7	34.7	34.7	94	33.2	2	5	90	0.00	29.831 
08:05	34.7	34.7	34.7	94	33.2	2	4	90	0.00	29.831 
08:10	34.7	34.7	34.7	94	33.2	2	5	90	0.00	29.831 
08:15	34.9	34.9	34.9	94	33.4	2	6	90	0.00	29.829 
08:20	34.9	34.9	34.9	94	33.4	3	7	112	0.00	29.829 
08:25	34.9	34.9	34.9	94	33.4	2	5	112	0.00	29.829 
08:30	34.9	34.9	34.9	94	33.4	1	4	90	0.00	29.832 
08:35	34.9	34.9	34.9	94	33.4	2	6	90	0.00	29.832 
08:40	35.0	35.0	35.0	94	33.5	2	6	112	0.00	29.832 
08:45	35.0	35.0	35.0	94	33.5	3	6	90	0.00	29.830 
08:50	35.0	35.0	35.0	94	33.5	2	6	90	0.00	29.830 
08:55	35.2	35.2	35.2	94	33.6	2	5	90	0.00	29.830 
09:00	35.2	35.2	35.2	94	33.6	3	5	90	0.00	29.831 
09:05	35.3	35.3	35.3	95	34.0	1	4	90	0.00	29.831 
09:10	35.5	35.5	35.5	95	34.2	2	4	90	0.00	29.831 
09:15	35.8	35.8	35.8	95	34.5	2	5	90	0.00	29.831 
09:20	35.8	35.8	35.8	95	34.5	1	4	68	0.00	29.831 
09:25	35.8	35.8	35.8	94	34.2	2	4	90	0.00	29.831 
09:30	35.9	35.9	35.9	95	34.6	0	3	90	0.00	29.841 
09:35	36.0	36.0	36.0	95	34.7	1	4	90	0.00	29.841 
09:40	36.2	36.2	36.2	95	34.9	1	3	90	0.00	29.841 
09:45	36.3	36.3	36.3	95	35.0	2	4	90	0.00	29.840 
09:50	36.5	36.5	36.5	95	35.2	1	4	90	0.00	29.840 
09:55	36.6	36.6	36.6	94	35.0	1	4	90	0.00	29.840 
10:00	36.8	36.8	36.8	94	35.2	1	4	90	0.00	29.840 
10:05	36.9	36.9	36.9	94	35.3	1	4	90	0.00	29.840 
10:10	37.2	37.2	37.2	94	35.6	1	4	90	0.00	29.840 
10:15	37.3	37.3	37.3	94	35.7	2	5	90	0.00	29.841 
10:20	37.5	37.5	37.5	94	35.9	2	3	90	0.00	29.841 
10:25	37.6	37.6	37.6	94	36.0	1	3	90	0.00	29.841 
10:30	37.6	37.6	37.6	94	36.0	2	6	90	0.00	29.844 
10:35	37.8	37.8	37.8	94	36.2	2	5	90	0.00	29.844 
10:40	37.8	37.8	37.8	94	36.2	2	5	90	0.00	29.844 
10:45	37.9	37.9	37.9	94	36.3	2	6	68	0.00	29.855 
10:50	38.0	38.0	38.0	94	36.4	1	2	68	0.00	29.855 
10:55	38.2	38.2	38.2	94	36.6	0	2	68	0.00	29.855 
11:00	38.3	38.3	38.3	94	36.7	0	3	68	0.00	29.857 
11:05	38.6	38.6	38.6	94	37.0	1	3	68	0.00	29.857 
11:10	38.9	38.9	38.9	94	37.3	0	2	68	0.00	29.857 
11:15	39.2	39.2	39.2	94	37.6	0	2	68	0.00	29.857 
11:20	39.3	39.3	39.3	93	37.4	0	1	158	0.00	29.857 
11:25	39.5	39.5	39.5	93	37.6	0	2	158	0.00	29.857 
11:30	39.5	39.5	39.5	93	37.6	0	2	158	0.00	29.857 
11:35	39.6	39.6	39.6	93	37.7	0	2	158	0.00	29.857 
11:40	39.8	39.8	39.8	93	37.9	0	2	158	0.00	29.857 
11:45	39.9	39.9	39.9	93	38.0	0	2	158	0.00	29.850 
11:50	40.1	40.1	40.1	93	38.2	0	2	158	0.00	29.850 
11:55	40.2	40.2	40.2	93	38.3	1	3	158	0.00	29.850 
12:00	40.5	40.5	40.5	92	38.4	2	6	158	0.00	29.832 
12:05	40.5	40.5	40.5	92	38.4	2	5	68	0.00	29.832 
12:10	40.6	40.6	40.6	92	38.5	2	6	90	0.00	29.832 
12:15	40.9	40.9	40.9	92	38.8	2	5	90	0.00	29.824 
12:20	41.2	41.2	41.2	92	39.1	2	4	112	0.00	29.824 
12:25	41.6	41.6	41.6	92	39.5	1	3	112	0.00	29.824 
12:30	41.9	41.9	41.9	92	39.7	1	5	112	0.00	29.820 
12:35	42.3	42.3	42.3	92	40.1	0	3	135	0.00	29.820 
12:40	42.6	42.6	42.6	91	40.2	0	2	135	0.00	29.820 
12:45	42.9	42.9	42.9	91	40.5	0	2	135	0.00	29.821 
12:50	43.3	43.3	43.3	91	40.9	0	2	135	0.00	29.821 
12:55	43.6	43.6	43.6	90	40.9	0	4	135	0.00	29.821 
13:00	43.9	43.9	43.9	89	40.9	0	2	112	0.00	29.820 
13:05	43.9	43.9	43.9	89	40.9	1	3	135	0.00	29.820 
13:10	44.1	44.1	44.1	89	41.1	0	2	112	0.00	29.820 
13:15	44.3	44.3	44.3	89	41.3	1	2	112	0.00	29.815 
13:20	44.6	44.6	44.6	88	41.3	1	3	112	0.00	29.815 
13:25	44.8	44.8	44.8	88	41.5	1	4	90	0.00	29.815 
13:30	44.9	44.9	44.9	88	41.6	1	4	112	0.00	29.808 
13:35	45.1	45.1	45.1	88	41.8	0	1	112	0.00	29.808 
13:40	45.4	45.4	45.4	88	42.1	0	1	112	0.00	29.808 
13:45	45.5	45.5	45.5	88	42.2	1	4	112	0.00	29.804 
13:50	45.7	45.7	45.7	88	42.4	0	3	112	0.00	29.804 
13:55	45.8	45.8	45.8	88	42.5	0	2	112	0.00	29.804 
14:00	46.1	46.1	46.1	88	42.7	0	2	112	0.00	29.796 
14:05	46.4	46.4	46.4	88	43.0	1	4	112	0.00	29.796 
14:10	46.7	46.7	46.7	88	43.3	1	3	112	0.00	29.796 
14:15	47.0	47.0	47.0	87	43.3	1	5	112	0.00	29.787 
14:20	47.3	47.3	47.3	87	43.6	1	3	135	0.00	29.787 
14:25	47.6	47.6	47.6	86	43.6	1	4	135	0.00	29.787 
14:30	47.7	47.7	47.7	86	43.7	1	4	90	0.00	29.786 
14:35	47.7	47.7	47.7	86	43.7	1	4	90	0.00	29.786 
14:40	47.9	47.9	47.9	86	43.9	1	3	90	0.00	29.786 
14:45	47.9	47.9	47.9	86	43.9	1	5	112	0.00	29.785 
14:50	47.9	47.9	47.9	86	43.9	1	3	112	0.00	29.785 
14:55	47.9	47.9	47.9	86	43.9	1	3	135	0.00	29.785 
15:00	47.9	47.9	47.9	86	43.9	1	3	90	0.00	29.784 
15:05	47.9	47.9	47.9	86	43.9	1	3	112	0.00	29.784 
15:10	48.0	48.0	48.0	86	44.0	1	4	112	0.00	29.784 
15:15	48.2	48.2	48.2	86	44.2	1	2	158	0.00	29.781 
15:20	48.2	48.2	48.2	86	44.2	1	3	158	0.00	29.781 
15:25	48.2	48.2	48.2	86	44.2	0	3	90	0.00	29.781 
15:30	48.2	48.2	48.2	86	44.2	1	3	112	0.00	29.775 
15:35	48.2	48.2	48.2	86	44.2	1	3	112	0.00	29.775 
15:40	48.2	48.2	48.2	86	44.2	1	3	68	0.00	29.775 
15:45	48.2	48.2	48.2	86	44.2	1	3	135	0.00	29.773 
15:50	48.2	48.2	48.2	86	44.2	1	3	112	0.00	29.773 
15:55	48.2	48.2	48.2	87	44.5	0	2	90	0.00	29.773 
16:00	48.0	48.0	48.0	87	44.3	0	2	90	0.00	29.777 
16:05	48.0	48.0	48.0	87	44.3	0	2	90	0.00	29.777 
16:10	48.0	48.0	48.0	87	44.3	0	2	90	0.00	29.777 
16:15	47.9	47.9	47.9	87	44.2	0	2	90	0.00	29.783 
16:20	47.9	47.9	47.9	87	44.2	0	1	112	0.00	29.783 
16:25	47.7	47.7	47.7	87	44.0	0	2	112	0.00	29.783 
16:30	47.7	47.7	47.7	88	44.3	0	2	112	0.00	29.777 
16:35	47.6	47.6	47.6	88	44.2	0	2	112	0.00	29.777 
16:40	47.6	47.6	47.6	88	44.2	0	2	112	0.00	29.777 
16:45	47.4	47.4	47.4	88	44.0	0	2	112	0.00	29.783 
16:50	47.4	47.4	47.4	88	44.0	0	1	112	0.00	29.783 
16:55	47.4	47.4	47.4	88	44.0	0	1	112	0.00	29.783 
17:00	47.3	47.3	47.3	88	43.9	0	2	112	0.00	29.786 
17:05	47.3	47.3	47.3	88	43.9	1	3	112	0.00	29.786 
17:10	47.1	47.1	47.1	88	43.7	1	2	112	0.00	29.786 
17:15	47.1	47.1	47.1	88	43.7	0	1	112	0.00	29.774 
17:20	47.0	47.0	47.0	89	43.9	0	1	112	0.00	29.774 
17:25	47.0	47.0	47.0	89	43.9	0	1	112	0.00	29.774 
17:30	46.8	46.8	46.8	89	43.7	0	2	112	0.00	29.776 
17:35	46.8	46.8	46.8	89	43.7	0	1	112	0.00	29.776 
17:40	46.8	46.8	46.8	89	43.7	0	3	112	0.00	29.776 
17:45	47.0	47.0	47.0	89	43.9	0	2	112	0.00	29.781 
17:50	47.0	47.0	47.0	89	43.9	0	2	112	0.00	29.781 
17:55	47.1	47.1	47.1	89	44.0	1	4	135	0.00	29.781 
18:00	47.1	47.1	47.1	89	44.0	1	3	90	0.00	29.779 
18:05	47.1	47.1	47.1	89	44.0	2	5	68	0.00	29.779 
18:10	47.0	47.0	47.0	89	43.9	1	2	112	0.00	29.779 
18:15	47.0	47.0	47.0	89	43.9	0	3	112	0.00	29.779 
18:20	46.8	46.8	46.8	89	43.7	0	2	112	0.00	29.779 
18:25	46.7	46.7	46.7	89	43.6	1	4	112	0.00	29.779 
18:30	46.5	46.5	46.5	89	43.4	1	3	90	0.00	29.786 
18:35	46.5	46.5	46.5	89	43.4	1	3	90	0.00	29.786 
18:40	46.4	46.4	46.4	89	43.3	0	3	112	0.00	29.786 
18:45	46.4	46.4	46.4	89	43.3	0	2	112	0.00	29.790 
18:50	46.2	46.2	46.2	89	43.1	0	2	112	0.00	29.790 
18:55	46.2	46.2	46.2	89	43.1	0	1	112	0.00	29.790 
19:00	46.2	46.2	46.2	89	43.1	0	2	112	0.00	29.791 
19:05	46.1	46.1	46.1	89	43.0	0	2	112	0.00	29.791 
19:10	46.1	46.1	46.1	89	43.0	1	2	112	0.00	29.791 
19:15	46.1	46.1	46.1	89	43.0	0	1	112	0.00	29.793 
19:20	46.0	46.0	46.0	89	42.9	1	4	112	0.00	29.793 
19:25	46.0	46.0	46.0	89	42.9	1	3	112	0.00	29.793 
19:30	46.0	46.0	46.0	90	43.2	0	2	135	0.00	29.792 
19:35	46.0	46.0	46.0	90	43.2	1	3	135	0.00	29.792 
19:40	46.0	46.0	46.0	90	43.2	0	2	135	0.00	29.792 
19:45	46.0	46.0	46.0	90	43.2	0	3	135	0.00	29.792 
19:50	46.0	46.0	46.0	90	43.2	0	2	135	0.00	29.792 
19:55	46.0	46.0	46.0	90	43.2	0	1	135	0.00	29.792 
20:00	46.0	46.0	46.0	90	43.2	0	1	135	0.00	29.792 
20:05	46.0	46.0	46.0	90	43.2	0	1	135	0.00	29.792 
20:10	46.0	46.0	46.0	90	43.2	0	1	135	0.00	29.792 
20:15	46.0	46.0	46.0	90	43.2	0	1	135	0.00	29.799 
20:20	46.0	46.0	46.0	90	43.2	0	0	---	0.00	29.799 
20:25	45.8	45.8	45.8	90	43.0	0	2	135	0.00	29.799 
20:30	45.8	45.8	45.8	90	43.0	0	1	135	0.00	29.797 
20:35	45.8	45.8	45.8	90	43.0	0	1	135	0.00	29.797 
20:40	45.8	45.8	45.8	90	43.0	0	1	135	0.00	29.797 
20:45	45.7	45.7	45.7	90	42.9	0	1	135	0.00	29.790 
20:50	45.5	45.5	45.5	90	42.7	0	0	---	0.00	29.790 
20:55	45.4	45.4	45.4	90	42.6	0	0	---	0.00	29.790 
21:00	45.2	45.2	45.2	90	42.4	0	0	---	0.00	29.795 
21:05	44.9	44.9	44.9	90	42.1	0	1	135	0.00	29.795 
21:10	44.8	44.8	44.8	90	42.0	0	0	---	0.00	29.795 
21:15	44.5	44.5	44.5	91	42.0	0	0	---	0.00	29.798 
21:20	44.5	44.5	44.5	91	42.0	0	0	---	0.00	29.798 
21:25	44.5	44.5	44.5	91	42.0	0	1	135	0.00	29.798 
21:30	44.5	44.5	44.5	92	42.3	0	1	135	0.00	29.798 
21:35	44.6	44.6	44.6	92	42.4	0	1	135	0.00	29.798 
21:40	44.6	44.6	44.6	92	42.4	0	1	135	0.00	29.798 
21:45	44.6	44.6	44.6	92	42.4	0	0	---	0.00	29.800 
21:50	44.6	44.6	44.6	92	42.4	0	0	---	0.00	29.800 
21:55	44.6	44.6	44.6	92	42.4	0	0	---	0.00	29.800 
22:00	44.6	44.6	44.6	92	42.4	0	0	---	0.00	29.805 
22:05	44.6	44.6	44.6	92	42.4	0	0	---	0.00	29.805 
22:10	44.5	44.5	44.5	92	42.3	0	0	---	0.00	29.805 
22:15	44.5	44.5	44.5	92	42.3	0	0	---	0.00	29.806 
22:20	44.5	44.5	44.5	92	42.3	0	0	---	0.00	29.806 
22:25	44.5	44.5	44.5	92	42.3	0	0	---	0.00	29.806 
22:30	44.5	44.5	44.5	92	42.3	0	0	---	0.00	29.816 
22:35	44.3	44.3	44.3	92	42.1	0	0	---	0.00	29.816 
22:40	44.3	44.3	44.3	92	42.1	0	0	---	0.00	29.816 
22:45	44.2	44.2	44.2	92	42.0	0	0	---	0.00	29.819 
22:50	44.2	44.2	44.2	92	42.0	0	0	---	0.00	29.819 
22:55	44.2	44.2	44.2	92	42.0	0	0	---	0.00	29.819 
23:00	44.1	44.1	44.1	93	42.2	0	0	---	0.00	29.824 
23:05	44.1	44.1	44.1	93	42.2	0	0	---	0.00	29.824 
23:10	44.1	44.1	44.1	93	42.2	0	0	---	0.00	29.824 
23:15	44.1	44.1	44.1	93	42.2	0	1	135	0.00	29.818 
23:20	44.1	44.1	44.1	93	42.2	0	1	135	0.00	29.818 
23:25	44.1	44.1	44.1	93	42.2	0	0	---	0.00	29.818 
23:30	44.1	44.1	44.1	93	42.2	0	0	---	0.00	29.823 
23:35	44.1	44.1	44.1	93	42.2	0	0	---	0.00	29.823 
23:40	44.1	44.1	44.1	93	42.2	0	2	135	0.00	29.823 
23:45	44.1	44.1	44.1	93	42.2	0	0	---	0.00	29.831 
23:50	44.1	44.1	44.1	93	42.2	0	0	---	0.00	29.831 
23:55	44.1	44.1	44.1	94	42.5	0	1	135	0.00	29.831 

CoCoRaHS
IN-AL-39
A2 Web Hosting
Creative Commons License
GoDaddy
search engine by freefind advanced

loaded 2018-11-17 18:16:34 • last modified 2010-11-18 10:43:29
Privacy PolicyDisclaimer
• wx.awcolley.com is powered by PmWiki v.2002016 •
• all content (unless otherwise noted) © 2018 A W Colley